createdAt,value
2023-04-04T00:00:28.027Z,-1.45
2023-04-04T00:02:54.684Z,-1.49
2023-04-04T00:05:21.267Z,-1.62
2023-04-04T00:07:48.059Z,-1.62
2023-04-04T00:10:15.084Z,-1.72
2023-04-04T00:12:42.591Z,-1.71
2023-04-04T00:15:09.799Z,-1.73
2023-04-04T00:17:36.238Z,-1.72
2023-04-04T00:20:04.206Z,-1.69
2023-04-04T00:22:30.680Z,-1.83
2023-04-04T00:24:57.166Z,-1.97
2023-04-04T00:27:23.547Z,-1.98
2023-04-04T00:29:49.986Z,-2.03
2023-04-04T00:32:16.784Z,-2.06
2023-04-04T00:34:43.401Z,-2.07
2023-04-04T00:37:12.223Z,-2.20
2023-04-04T00:39:38.658Z,-2.19
2023-04-04T00:42:06.199Z,-1.97
2023-04-04T00:44:32.898Z,-2.00
2023-04-04T00:46:59.373Z,-2.18
2023-04-04T00:49:25.814Z,-2.24
2023-04-04T00:51:52.670Z,-2.27
2023-04-04T00:54:19.114Z,-2.35
2023-04-04T00:56:46.455Z,-2.26
2023-04-04T00:59:13.301Z,-2.16
2023-04-04T01:01:39.852Z,-2.28
2023-04-04T01:04:06.380Z,-2.27
2023-04-04T01:06:33.014Z,-2.44
2023-04-04T01:08:59.962Z,-2.38
2023-04-04T01:11:27.704Z,-2.42
2023-04-04T01:13:54.407Z,-2.31
2023-04-04T01:16:21.517Z,-2.28
2023-04-04T01:18:49.662Z,-2.36
2023-04-04T01:21:21.846Z,-2.52
2023-04-04T01:24:03.837Z,-2.52
2023-04-04T01:26:31.179Z,-2.62
2023-04-04T01:28:58.669Z,-2.89
2023-04-04T01:31:32.595Z,-2.87
2023-04-04T01:34:07.535Z,-2.87
2023-04-04T01:36:47.543Z,-2.91
2023-04-04T01:39:31.535Z,-2.83
2023-04-04T01:41:59.405Z,-2.99
2023-04-04T01:44:26.440Z,-2.93
2023-04-04T01:46:55.032Z,-2.94
2023-04-04T01:49:22.355Z,-2.97
2023-04-04T01:51:50.483Z,-2.97
2023-04-04T01:54:18.981Z,-2.99
2023-04-04T01:56:46.244Z,-3.00
2023-04-04T01:59:12.698Z,-3.15
2023-04-04T02:01:39.678Z,-3.11
2023-04-04T02:04:07.124Z,-2.95
2023-04-04T02:06:33.934Z,-3.06
2023-04-04T02:09:00.864Z,-3.17
2023-04-04T02:11:27.596Z,-3.31
2023-04-04T02:13:54.026Z,-3.33
2023-04-04T02:16:21.240Z,-3.28
2023-04-04T02:18:47.856Z,-3.27
2023-04-04T02:21:14.618Z,-3.25
2023-04-04T02:23:41.602Z,-3.21
2023-04-04T02:26:08.099Z,-3.18
2023-04-04T02:28:34.772Z,-3.24
2023-04-04T02:31:04.852Z,-3.26
2023-04-04T02:33:31.879Z,-3.12
2023-04-04T02:35:59.653Z,-3.16
2023-04-04T02:38:26.457Z,-3.28
2023-04-04T02:40:53.436Z,-3.40
2023-04-04T02:43:19.963Z,-3.40
2023-04-04T02:45:48.789Z,-3.41
2023-04-04T02:48:15.736Z,-3.38
2023-04-04T02:50:42.573Z,-3.33
2023-04-04T02:53:09.350Z,-3.37
2023-04-04T02:55:36.094Z,-3.41
2023-04-04T02:58:02.819Z,-3.37
2023-04-04T03:00:29.596Z,-3.45
2023-04-04T03:02:57.723Z,-3.47
2023-04-04T03:05:25.538Z,-3.64
2023-04-04T03:07:58.612Z,-3.69
2023-04-04T03:10:27.008Z,-3.69
2023-04-04T03:12:53.411Z,-3.65
2023-04-04T03:15:19.880Z,-3.60
2023-04-04T03:17:46.847Z,-3.62
2023-04-04T03:20:14.983Z,-3.54
2023-04-04T03:22:42.045Z,-3.60
2023-04-04T03:25:09.240Z,-3.61
2023-04-04T03:27:35.758Z,-3.54
2023-04-04T03:30:02.393Z,-3.58
2023-04-04T03:32:28.865Z,-3.64
2023-04-04T03:34:55.729Z,-3.66
2023-04-04T03:37:22.843Z,-3.72
2023-04-04T03:39:49.217Z,-3.66
2023-04-04T03:42:15.807Z,-3.70
2023-04-04T03:44:42.934Z,-3.73
2023-04-04T03:47:09.369Z,-3.82
2023-04-04T03:49:36.260Z,-3.91
2023-04-04T03:52:03.264Z,-4.06
2023-04-04T03:54:29.861Z,-4.01
2023-04-04T03:56:57.091Z,-3.84
2023-04-04T03:59:24.002Z,-3.74
2023-04-04T04:01:50.973Z,-3.92
2023-04-04T04:04:17.462Z,-3.97
2023-04-04T04:06:44.224Z,-4.08
2023-04-04T04:09:12.246Z,-4.24
2023-04-04T04:11:38.832Z,-4.23
2023-04-04T04:14:05.410Z,-4.20
2023-04-04T04:16:32.967Z,-4.08
2023-04-04T04:18:59.711Z,-4.09
2023-04-04T04:21:26.258Z,-4.13
2023-04-04T04:23:52.722Z,-4.11
2023-04-04T04:26:19.120Z,-4.07
2023-04-04T04:28:47.981Z,-4.00
2023-04-04T04:31:14.543Z,-4.19
2023-04-04T04:33:41.336Z,-4.32
2023-04-04T04:36:08.129Z,-4.40
2023-04-04T04:38:34.721Z,-4.30
2023-04-04T04:41:01.800Z,-4.26
2023-04-04T04:43:28.265Z,-4.21
2023-04-04T04:45:54.913Z,-4.21
2023-04-04T04:48:21.490Z,-4.25
2023-04-04T04:50:48.628Z,-4.18
2023-04-04T04:53:15.096Z,-4.13
2023-04-04T04:55:43.223Z,-4.15
2023-04-04T04:58:11.014Z,-4.21
2023-04-04T05:00:38.551Z,-4.20
2023-04-04T05:03:08.202Z,-4.22
2023-04-04T05:05:35.115Z,-4.12
2023-04-04T05:08:02.788Z,-4.01
2023-04-04T05:10:32.516Z,-3.81
2023-04-04T05:12:59.012Z,-3.79
2023-04-04T05:15:31.476Z,-3.65
2023-04-04T05:17:58.310Z,-3.36
2023-04-04T05:20:24.926Z,-2.29
2023-04-04T05:22:51.713Z,-1.02
2023-04-04T05:25:18.484Z,0.35
2023-04-04T05:27:48.693Z,1.54
2023-04-04T05:30:16.261Z,2.67
2023-04-04T05:32:45.125Z,3.59
2023-04-04T05:35:11.806Z,4.38
2023-04-04T05:37:39.462Z,4.65
2023-04-04T05:40:07.327Z,4.82
2023-04-04T05:42:33.892Z,5.32
2023-04-04T05:45:00.519Z,5.87
2023-04-04T05:47:26.952Z,6.32
2023-04-04T05:49:53.450Z,6.70
2023-04-04T05:52:19.898Z,7.31
2023-04-04T05:54:47.349Z,7.75
2023-04-04T05:57:13.821Z,8.42
2023-04-04T05:59:40.258Z,7.88
2023-04-04T06:02:07.735Z,7.67
2023-04-04T06:04:34.272Z,7.16
2023-04-04T06:07:00.988Z,7.78
2023-04-04T06:09:27.868Z,7.69
2023-04-04T06:11:54.333Z,7.42
2023-04-04T06:14:20.905Z,7.06
2023-04-04T06:16:47.517Z,7.39
2023-04-04T06:19:13.981Z,7.41
2023-04-04T06:21:40.588Z,7.47
2023-04-04T06:24:07.645Z,7.56
2023-04-04T06:26:34.605Z,7.76
2023-04-04T06:29:01.039Z,8.73
2023-04-04T06:31:27.501Z,9.44
2023-04-04T06:33:55.354Z,9.79
2023-04-04T06:36:21.860Z,9.85
2023-04-04T06:38:48.376Z,10.22
2023-04-04T06:41:14.821Z,10.18
2023-04-04T06:43:41.597Z,10.11
2023-04-04T06:46:08.091Z,10.41
2023-04-04T06:48:34.517Z,10.71
2023-04-04T06:51:01.341Z,10.83
2023-04-04T06:53:27.848Z,10.97
2023-04-04T06:55:54.440Z,10.77
2023-04-04T06:58:21.256Z,10.57
2023-04-04T07:00:47.792Z,10.09
2023-04-04T07:03:14.405Z,9.50
2023-04-04T07:05:41.735Z,9.40
2023-04-04T07:08:08.890Z,9.06
2023-04-04T07:10:35.879Z,8.60
2023-04-04T07:13:02.384Z,9.12
2023-04-04T07:15:28.925Z,8.98
2023-04-04T07:17:55.339Z,9.22
2023-04-04T07:20:22.125Z,9.33
2023-04-04T07:22:48.698Z,9.29
2023-04-04T07:25:15.265Z,9.81
2023-04-04T07:27:41.829Z,9.46
2023-04-04T07:30:09.338Z,9.90
2023-04-04T07:32:35.939Z,10.12
2023-04-04T07:35:02.544Z,9.92
2023-04-04T07:37:28.955Z,10.10
2023-04-04T07:39:55.409Z,10.19
2023-04-04T07:42:25.185Z,9.67
2023-04-04T07:44:52.455Z,9.60
2023-04-04T07:47:19.136Z,10.62
2023-04-04T07:49:45.749Z,10.47
2023-04-04T07:52:12.550Z,10.37
2023-04-04T07:54:40.310Z,10.43
2023-04-04T07:57:09.659Z,10.32
2023-04-04T07:59:37.078Z,10.04
2023-04-04T08:02:03.670Z,10.25
2023-04-04T08:04:30.221Z,9.94
2023-04-04T08:06:56.775Z,10.13
2023-04-04T08:09:23.217Z,9.63
2023-04-04T08:11:49.709Z,9.77
2023-04-04T08:14:16.588Z,10.27
2023-04-04T08:16:42.997Z,10.70
2023-04-04T08:19:09.925Z,10.59
2023-04-04T08:21:36.424Z,10.97
2023-04-04T08:24:03.011Z,10.75
2023-04-04T08:26:30.553Z,10.79
2023-04-04T08:28:57.065Z,10.54
2023-04-04T08:31:23.569Z,11.13
2023-04-04T08:33:50.776Z,11.03
2023-04-04T08:36:17.856Z,11.50
2023-04-04T08:38:44.619Z,11.44
2023-04-04T08:41:12.377Z,11.36
2023-04-04T08:43:41.492Z,11.57
2023-04-04T08:46:11.380Z,10.48
2023-04-04T08:48:39.480Z,11.38
2023-04-04T08:51:09.222Z,11.73
2023-04-04T08:53:37.218Z,10.30
2023-04-04T08:56:04.497Z,10.04
2023-04-04T08:58:30.916Z,9.47
2023-04-04T09:00:57.927Z,9.05
2023-04-04T09:03:27.361Z,8.46
2023-04-04T09:05:55.499Z,8.84
2023-04-04T09:08:23.801Z,9.40
2023-04-04T09:10:52.270Z,9.82
2023-04-04T09:13:19.131Z,9.50
2023-04-04T09:15:55.162Z,8.49
2023-04-04T09:18:21.789Z,9.69
2023-04-04T09:20:51.969Z,9.87
2023-04-04T09:23:23.470Z,10.01
2023-04-04T09:28:24.537Z,10.12
2023-04-04T09:30:52.496Z,9.47
2023-04-04T09:33:21.730Z,9.60
2023-04-04T09:36:20.924Z,10.72
2023-04-04T09:38:49.406Z,9.63
2023-04-04T09:41:20.850Z,8.89
2023-04-04T09:43:51.184Z,8.57
2023-04-04T09:46:35.683Z,8.30
2023-04-04T09:49:02.961Z,8.57
2023-04-04T09:51:36.072Z,9.56
2023-04-04T09:54:03.009Z,10.54
2023-04-04T09:56:30.742Z,11.08
2023-04-04T09:59:04.345Z,10.71
2023-04-04T10:01:33.570Z,10.13
2023-04-04T10:04:00.318Z,8.97
2023-04-04T10:06:27.014Z,10.19
2023-04-04T10:08:53.562Z,11.14
2023-04-04T10:11:32.283Z,12.19
2023-04-04T10:13:59.723Z,11.48
2023-04-04T10:16:27.041Z,10.71
2023-04-04T10:18:53.920Z,11.17
2023-04-04T10:21:21.592Z,12.29
2023-04-04T10:23:48.969Z,13.28
2023-04-04T10:26:15.697Z,14.73
2023-04-04T10:28:43.920Z,15.46
2023-04-04T10:31:25.349Z,15.57
2023-04-04T10:34:07.659Z,15.03
2023-04-04T10:36:44.331Z,15.30
2023-04-04T10:39:14.933Z,15.06
2023-04-04T10:41:42.272Z,15.78
2023-04-04T10:44:29.392Z,15.61
2023-04-04T10:46:58.895Z,15.84
2023-04-04T10:49:28.204Z,16.00
2023-04-04T10:51:57.786Z,15.96
2023-04-04T10:54:27.720Z,16.79
2023-04-04T10:56:58.774Z,16.69
2023-04-04T10:59:26.536Z,14.65
2023-04-04T11:02:00.679Z,14.89
2023-04-04T11:04:34.416Z,15.94
2023-04-04T11:07:10.190Z,16.61
2023-04-04T11:09:56.385Z,15.30
2023-04-04T11:12:33.761Z,15.55
2023-04-04T11:15:04.551Z,15.63
2023-04-04T11:17:42.113Z,16.60
2023-04-04T11:20:11.904Z,17.85
2023-04-04T11:22:42.631Z,17.20
2023-04-04T11:25:30.793Z,17.50
2023-04-04T11:27:58.420Z,17.06
2023-04-04T11:30:28.840Z,15.61
2023-04-04T11:33:06.993Z,15.67
2023-04-04T11:35:34.015Z,16.75
2023-04-04T11:38:01.743Z,17.76
2023-04-04T11:40:39.797Z,18.65
2023-04-04T11:43:12.137Z,18.87
2023-04-04T11:45:44.859Z,18.72
2023-04-04T11:48:15.062Z,19.48
2023-04-04T11:50:42.532Z,19.77
2023-04-04T11:53:11.181Z,19.71
2023-04-04T11:55:47.696Z,19.02
2023-04-04T11:58:16.557Z,18.66
2023-04-04T12:00:44.203Z,19.27
2023-04-04T12:03:12.780Z,18.98
2023-04-04T12:05:42.029Z,18.90
2023-04-04T12:08:10.943Z,18.44
2023-04-04T12:10:40.835Z,17.91
2023-04-04T12:13:08.649Z,18.25
2023-04-04T12:15:39.500Z,19.13
2023-04-04T12:18:09.266Z,20.10
2023-04-04T12:20:41.060Z,17.33
2023-04-04T12:23:07.569Z,15.81
2023-04-04T12:25:34.823Z,14.93
2023-04-04T12:28:04.220Z,15.35
2023-04-04T12:30:31.099Z,15.51
2023-04-04T12:32:59.234Z,15.39
2023-04-04T12:35:26.065Z,16.09
2023-04-04T12:38:10.844Z,16.23
2023-04-04T12:40:39.089Z,17.78
2023-04-04T12:43:09.761Z,17.97
2023-04-04T12:45:40.689Z,18.45
2023-04-04T12:48:13.708Z,18.03
2023-04-04T12:50:59.400Z,18.86
2023-04-04T12:53:30.355Z,18.46
2023-04-04T12:56:02.412Z,18.47
2023-04-04T12:58:29.555Z,18.96
2023-04-04T13:01:01.317Z,18.27
2023-04-04T13:03:30.896Z,17.89
2023-04-04T13:05:58.571Z,20.00
2023-04-04T13:08:25.190Z,18.31
2023-04-04T13:11:00.581Z,18.06
2023-04-04T13:13:38.830Z,16.89
2023-04-04T13:16:29.549Z,16.70
2023-04-04T13:18:56.114Z,17.22
2023-04-04T13:21:22.912Z,18.20
2023-04-04T13:23:49.859Z,16.24
2023-04-04T13:26:16.626Z,16.48
2023-04-04T13:28:43.101Z,17.55
2023-04-04T13:31:11.813Z,18.82
2023-04-04T13:33:38.904Z,18.21
2023-04-04T13:36:06.131Z,19.15
2023-04-04T13:38:35.831Z,19.16
2023-04-04T13:41:02.347Z,18.67
2023-04-04T13:43:28.933Z,18.87
2023-04-04T13:45:55.731Z,19.76
2023-04-04T13:48:22.783Z,18.83
2023-04-04T13:50:53.033Z,18.82
2023-04-04T13:53:20.107Z,18.96
2023-04-04T13:56:13.147Z,18.96
2023-04-04T13:58:33.380Z,18.96
2023-04-04T14:01:04.008Z,19.16
2023-04-04T14:03:31.558Z,19.39
2023-04-04T14:06:00.326Z,18.72
2023-04-04T14:08:30.641Z,17.40
2023-04-04T14:10:57.554Z,16.77
2023-04-04T14:13:23.989Z,15.68
2023-04-04T14:15:50.829Z,16.24
2023-04-04T14:18:17.475Z,16.20
2023-04-04T14:20:44.029Z,15.61
2023-04-04T14:23:10.595Z,14.62
2023-04-04T14:25:37.070Z,15.60
2023-04-04T14:28:03.507Z,16.95
2023-04-04T14:30:30.109Z,18.15
2023-04-04T14:32:56.688Z,17.71
2023-04-04T14:35:23.185Z,18.30
2023-04-04T14:37:50.083Z,18.73
2023-04-04T14:40:16.707Z,17.92
2023-04-04T14:42:43.225Z,18.03
2023-04-04T14:45:11.312Z,17.10
2023-04-04T14:47:37.944Z,16.40
2023-04-04T14:50:04.984Z,16.72
2023-04-04T14:52:31.514Z,15.85
2023-04-04T14:54:58.044Z,16.53
2023-04-04T14:57:24.663Z,16.67
2023-04-04T14:59:51.345Z,16.76
2023-04-04T15:02:18.167Z,16.79
2023-04-04T15:04:44.690Z,15.54
2023-04-04T15:07:11.405Z,15.00
2023-04-04T15:09:37.881Z,14.98
2023-04-04T15:12:04.313Z,14.59
2023-04-04T15:14:30.903Z,14.17
2023-04-04T15:16:57.363Z,13.66
2023-04-04T15:19:23.994Z,14.74
2023-04-04T15:21:50.512Z,14.53
2023-04-04T15:24:16.947Z,14.19
2023-04-04T15:26:43.626Z,14.70
2023-04-04T15:29:11.269Z,14.36
2023-04-04T15:31:38.161Z,13.43
2023-04-04T15:34:04.644Z,12.94
2023-04-04T15:36:33.446Z,12.63
2023-04-04T15:38:59.867Z,11.47
2023-04-04T15:41:26.324Z,11.21
2023-04-04T15:43:53.054Z,10.60
2023-04-04T15:46:19.586Z,10.26
2023-04-04T15:48:47.949Z,9.35
2023-04-04T15:51:14.495Z,9.07
2023-04-04T15:53:40.941Z,8.36
2023-04-04T15:56:07.512Z,8.56
2023-04-04T15:58:34.068Z,8.35
2023-04-04T16:01:00.723Z,8.20
2023-04-04T16:03:27.293Z,8.28
2023-04-04T16:05:53.902Z,8.60
2023-04-04T16:08:20.573Z,8.60
2023-04-04T16:10:47.042Z,8.74
2023-04-04T16:13:13.989Z,8.87
2023-04-04T16:15:40.823Z,9.13
2023-04-04T16:18:07.503Z,9.13
2023-04-04T16:20:34.906Z,9.13
2023-04-04T16:23:01.684Z,8.82
2023-04-04T16:25:28.350Z,8.72
2023-04-04T16:27:54.986Z,8.49
2023-04-04T16:30:21.460Z,8.42
2023-04-04T16:32:48.082Z,8.14
2023-04-04T16:35:15.117Z,8.19
2023-04-04T16:37:41.676Z,8.44
2023-04-04T16:40:08.962Z,8.19
2023-04-04T16:42:35.476Z,7.74
2023-04-04T16:45:02.128Z,7.36
2023-04-04T16:47:28.632Z,7.27
2023-04-04T16:49:55.294Z,7.26
2023-04-04T16:52:21.783Z,7.37
2023-04-04T16:54:48.340Z,7.20
2023-04-04T16:57:14.766Z,7.10
2023-04-04T16:59:41.172Z,6.84
2023-04-04T17:02:08.325Z,6.95
2023-04-04T17:04:35.008Z,6.90
2023-04-04T17:07:02.663Z,6.90
2023-04-04T17:09:29.485Z,6.91
2023-04-04T17:11:57.226Z,6.82
2023-04-04T17:14:25.287Z,6.78
2023-04-04T17:16:52.671Z,6.98
2023-04-04T17:19:19.209Z,6.91
2023-04-04T17:21:46.717Z,7.06
2023-04-04T17:24:13.505Z,6.94
2023-04-04T17:26:40.045Z,6.89
2023-04-04T17:29:06.679Z,6.68
2023-04-04T17:31:33.346Z,6.71
2023-04-04T17:33:59.869Z,6.88
2023-04-04T17:36:27.084Z,6.86
2023-04-04T17:38:53.633Z,6.53
2023-04-04T17:41:20.194Z,6.53
2023-04-04T17:43:46.580Z,6.22
2023-04-04T17:46:12.989Z,6.21
2023-04-04T17:48:39.533Z,6.29
2023-04-04T17:51:08.343Z,6.13
2023-04-04T17:53:35.026Z,6.07
2023-04-04T17:56:01.677Z,6.05
2023-04-04T17:58:28.140Z,5.89
2023-04-04T18:00:55.856Z,5.75
2023-04-04T18:03:25.313Z,5.75
2023-04-04T18:05:52.658Z,5.74
2023-04-04T18:08:19.171Z,5.64
2023-04-04T18:10:45.832Z,5.62
2023-04-04T18:13:12.336Z,5.50
2023-04-04T18:15:38.849Z,5.49
2023-04-04T18:18:06.341Z,5.31
2023-04-04T18:20:35.248Z,5.25
2023-04-04T18:23:09.333Z,5.15
2023-04-04T18:25:36.046Z,4.99
2023-04-04T18:28:03.120Z,4.86
2023-04-04T18:30:29.598Z,4.81
2023-04-04T18:32:57.464Z,4.67
2023-04-04T18:35:24.005Z,4.57
2023-04-04T18:37:50.734Z,4.49
2023-04-04T18:40:17.594Z,4.37
2023-04-04T18:42:44.838Z,4.30
2023-04-04T18:45:11.785Z,4.19
2023-04-04T18:47:40.049Z,4.03
2023-04-04T18:50:08.206Z,3.90
2023-04-04T18:52:36.279Z,3.80
2023-04-04T18:55:04.384Z,3.67
2023-04-04T18:57:30.922Z,3.47
2023-04-04T18:59:57.362Z,3.33
2023-04-04T19:02:23.789Z,3.30
2023-04-04T19:04:53.251Z,3.40
2023-04-04T19:07:24.482Z,3.23
2023-04-04T19:09:51.578Z,3.11
2023-04-04T19:12:18.211Z,2.98
2023-04-04T19:14:44.636Z,2.87
2023-04-04T19:17:15.415Z,2.83
2023-04-04T19:19:43.300Z,2.66
2023-04-04T19:22:09.997Z,2.56
2023-04-04T19:24:36.404Z,2.45
2023-04-04T19:27:03.249Z,2.40
2023-04-04T19:29:32.005Z,2.26
2023-04-04T19:32:00.790Z,2.08
2023-04-04T19:34:30.608Z,1.93
2023-04-04T19:36:57.064Z,1.83
2023-04-04T19:39:30.432Z,1.77
2023-04-04T19:41:57.352Z,1.72
2023-04-04T19:44:23.948Z,1.59
2023-04-04T19:46:50.466Z,1.52
2023-04-04T19:49:17.861Z,1.51
2023-04-04T19:51:57.742Z,1.38
2023-04-04T19:54:28.886Z,1.28
2023-04-04T19:57:08.002Z,1.11
2023-04-04T19:59:57.752Z,1.03
2023-04-04T20:02:27.009Z,0.98
2023-04-04T20:04:54.194Z,0.93
2023-04-04T20:07:20.838Z,0.92
2023-04-04T20:09:47.755Z,0.89
2023-04-04T20:12:16.069Z,0.87
2023-04-04T20:14:42.570Z,0.92
2023-04-04T20:17:09.721Z,0.80
2023-04-04T20:19:36.612Z,0.68
2023-04-04T20:22:05.067Z,0.60
2023-04-04T20:24:31.621Z,0.64
2023-04-04T20:26:59.512Z,0.59
2023-04-04T20:29:27.077Z,0.36
2023-04-04T20:31:58.904Z,0.22
2023-04-04T20:34:25.683Z,0.28
2023-04-04T20:36:52.220Z,0.34
2023-04-04T20:39:54.515Z,0.29
2023-04-04T20:42:30.296Z,0.38
2023-04-04T20:45:00.804Z,0.32
2023-04-04T20:47:43.188Z,0.24
2023-04-04T20:50:21.858Z,0.28
2023-04-04T20:52:59.662Z,0.31
2023-04-04T20:55:29.908Z,0.44
2023-04-04T20:58:07.261Z,0.46
2023-04-04T21:00:36.371Z,0.47
2023-04-04T21:03:10.013Z,0.42
2023-04-04T21:05:38.831Z,0.44
2023-04-04T21:08:34.020Z,0.42
2023-04-04T21:11:00.588Z,0.43
2023-04-04T21:13:30.591Z,0.41
2023-04-04T21:16:00.927Z,0.47
2023-04-04T21:18:30.535Z,0.39
2023-04-04T21:20:56.956Z,0.41
2023-04-04T21:23:30.520Z,0.50
2023-04-04T21:26:07.085Z,0.57
2023-04-04T21:28:36.626Z,0.56
2023-04-04T21:31:13.320Z,0.61
2023-04-04T21:33:44.473Z,0.54
2023-04-04T21:36:24.551Z,0.47
2023-04-04T21:39:05.886Z,0.50
2023-04-04T21:41:34.437Z,0.56
2023-04-04T21:44:03.389Z,0.44
2023-04-04T21:46:35.180Z,0.43
2023-04-04T21:49:02.296Z,0.47
2023-04-04T21:51:29.019Z,0.47
2023-04-04T21:53:56.293Z,0.31
2023-04-04T21:56:27.059Z,0.21
2023-04-04T21:58:55.234Z,-0.05
2023-04-04T22:01:21.887Z,-0.08
2023-04-04T22:03:48.474Z,-0.13
2023-04-04T22:06:14.970Z,-0.10
2023-04-04T22:08:42.151Z,-0.01
2023-04-04T22:11:13.247Z,-0.15
2023-04-04T22:13:42.860Z,-0.10
2023-04-04T22:16:15.881Z,0.03
2023-04-04T22:18:47.206Z,-0.13
2023-04-04T22:21:17.152Z,-0.32
2023-04-04T22:23:44.790Z,-0.43
2023-04-04T22:26:14.970Z,-0.18
2023-04-04T22:28:45.675Z,-0.20
2023-04-04T22:31:12.639Z,-0.15
2023-04-04T22:33:39.058Z,-0.12
2023-04-04T22:36:07.949Z,-0.13
2023-04-04T22:38:34.458Z,-0.18
2023-04-04T22:41:00.901Z,-0.18
2023-04-04T22:43:27.339Z,-0.21
2023-04-04T22:45:53.861Z,-0.28
2023-04-04T22:48:22.895Z,-0.28
2023-04-04T22:50:55.985Z,-0.41
2023-04-04T22:53:26.536Z,-0.43
2023-04-04T22:55:58.127Z,-0.58
2023-04-04T22:58:24.552Z,-0.67
2023-04-04T23:00:51.013Z,-0.65
2023-04-04T23:03:17.496Z,-0.63
2023-04-04T23:05:43.958Z,-0.48
2023-04-04T23:08:10.844Z,-0.48
2023-04-04T23:10:37.344Z,-0.43
2023-04-04T23:13:03.890Z,-0.48
2023-04-04T23:15:32.258Z,-0.56
2023-04-04T23:17:58.865Z,-0.55
2023-04-04T23:20:25.428Z,-0.40
2023-04-04T23:22:51.861Z,-0.40
2023-04-04T23:25:18.619Z,-0.47
2023-04-04T23:27:45.075Z,-0.51
2023-04-04T23:30:11.918Z,-0.65
2023-04-04T23:32:38.406Z,-0.69
2023-04-04T23:35:05.203Z,-0.73
2023-04-04T23:37:31.662Z,-0.78
2023-04-04T23:39:58.095Z,-0.79
2023-04-04T23:42:24.624Z,-0.89
2023-04-04T23:44:51.479Z,-0.84
2023-04-04T23:47:18.210Z,-0.87
2023-04-04T23:49:44.797Z,-0.87
2023-04-04T23:52:11.328Z,-0.86
2023-04-04T23:54:37.749Z,-0.79
2023-04-04T23:57:04.261Z,-0.83
2023-04-04T23:59:31.088Z,-0.86
